createdAt,value
2022-08-05T00:00:16.190Z,59.27
2022-08-05T00:02:43.839Z,58.46
2022-08-05T00:06:02.631Z,57.46
2022-08-05T00:08:05.366Z,57.25
2022-08-05T00:10:51.645Z,59.50
2022-08-05T00:13:18.659Z,58.88
2022-08-05T00:15:55.043Z,60.19
2022-08-05T00:18:22.975Z,60.32
2022-08-05T00:20:50.720Z,59.26
2022-08-05T00:23:17.995Z,58.54
2022-08-05T00:26:04.460Z,58.41
2022-08-05T00:28:31.230Z,59.90
2022-08-05T00:31:04.266Z,59.75
2022-08-05T00:34:54.292Z,59.56
2022-08-05T00:37:11.022Z,59.78
2022-08-05T00:39:05.363Z,59.66
2022-08-05T00:41:52.155Z,60.64
2022-08-05T00:44:30.537Z,60.02
2022-08-05T00:47:02.136Z,59.92
2022-08-05T00:49:32.617Z,59.57
2022-08-05T00:51:59.919Z,60.20
2022-08-05T00:54:28.129Z,59.74
2022-08-05T00:56:56.610Z,57.81
2022-08-05T00:59:23.128Z,61.39
2022-08-05T01:01:49.650Z,59.71
2022-08-05T01:04:19.914Z,59.86
2022-08-05T01:06:53.038Z,58.55
2022-08-05T01:09:20.061Z,59.14
2022-08-05T01:11:49.819Z,58.57
2022-08-05T01:14:27.957Z,58.54
2022-08-05T01:17:17.109Z,58.97
2022-08-05T01:20:13.408Z,60.78
2022-08-05T01:22:49.756Z,60.45
2022-08-05T01:25:43.516Z,60.88
2022-08-05T01:28:24.509Z,62.10
2022-08-05T01:31:03.035Z,61.08
2022-08-05T01:33:35.589Z,61.58
2022-08-05T01:36:12.867Z,61.45
2022-08-05T01:38:48.532Z,60.71
2022-08-05T01:41:20.977Z,63.10
2022-08-05T01:43:50.960Z,63.56
2022-08-05T01:46:42.154Z,62.99
2022-08-05T01:49:23.142Z,63.55
2022-08-05T01:51:54.809Z,63.85
2022-08-05T01:54:25.630Z,63.42
2022-08-05T01:58:10.808Z,63.25
2022-08-05T01:59:47.292Z,62.73
2022-08-05T02:02:15.860Z,63.14
2022-08-05T02:04:46.243Z,63.77
2022-08-05T02:07:22.233Z,63.49
2022-08-05T02:09:50.363Z,63.94
2022-08-05T02:12:42.297Z,63.67
2022-08-05T02:15:26.241Z,65.13
2022-08-05T02:18:30.888Z,65.03
2022-08-05T02:21:26.399Z,64.21
2022-08-05T02:23:57.130Z,65.42
2022-08-05T02:26:33.807Z,64.16
2022-08-05T02:29:01.978Z,64.02
2022-08-05T02:31:35.448Z,64.59
2022-08-05T02:34:06.761Z,65.13
2022-08-05T02:36:38.444Z,64.34
2022-08-05T02:39:08.620Z,65.48
2022-08-05T02:41:57.562Z,65.08
2022-08-05T02:44:25.648Z,65.28
2022-08-05T02:47:00.482Z,64.73
2022-08-05T02:49:35.899Z,64.46
2022-08-05T02:52:06.036Z,65.51
2022-08-05T02:54:37.045Z,64.96
2022-08-05T02:57:10.230Z,65.99
2022-08-05T02:59:55.202Z,64.51
2022-08-05T03:02:27.510Z,64.92
2022-08-05T03:04:56.446Z,65.75
2022-08-05T03:07:40.362Z,65.75
2022-08-05T03:10:11.296Z,65.56
2022-08-05T03:12:40.241Z,65.28
2022-08-05T03:15:12.604Z,66.44
2022-08-05T03:17:41.479Z,66.51
2022-08-05T03:20:10.059Z,66.64
2022-08-05T03:22:37.164Z,66.63
2022-08-05T03:26:03.880Z,66.58
2022-08-05T03:28:00.188Z,66.41
2022-08-05T03:30:33.698Z,66.04
2022-08-05T03:33:02.887Z,66.51
2022-08-05T03:35:34.003Z,66.85
2022-08-05T03:38:06.915Z,65.78
2022-08-05T03:40:34.227Z,65.74
2022-08-05T03:43:59.235Z,67.93
2022-08-05T03:45:57.930Z,66.53
2022-08-05T03:48:25.393Z,66.67
2022-08-05T03:52:37.668Z,66.26
2022-08-05T03:55:50.833Z,65.78
2022-08-05T03:56:53.760Z,66.48
2022-08-05T03:59:46.540Z,65.99
2022-08-05T04:02:17.607Z,66.66
2022-08-05T04:05:02.632Z,66.13
2022-08-05T04:07:30.859Z,66.47
2022-08-05T04:10:02.983Z,67.19
2022-08-05T04:12:30.050Z,65.96
2022-08-05T04:14:59.303Z,66.01
2022-08-05T04:17:55.782Z,65.73
2022-08-05T04:20:23.161Z,66.03
2022-08-05T04:22:50.625Z,66.79
2022-08-05T04:25:17.291Z,67.00
2022-08-05T04:27:58.852Z,66.84
2022-08-05T04:30:26.564Z,66.20
2022-08-05T04:32:55.230Z,66.92
2022-08-05T04:35:22.840Z,67.66
2022-08-05T04:38:01.473Z,67.68
2022-08-05T04:40:37.169Z,67.35
2022-08-05T04:43:16.712Z,67.83
2022-08-05T04:45:48.896Z,68.57
2022-08-05T04:48:27.471Z,68.39
2022-08-05T04:51:01.745Z,67.67
2022-08-05T04:53:33.568Z,66.86
2022-08-05T04:56:32.747Z,67.00
2022-08-05T04:58:48.411Z,66.25
2022-08-05T05:01:14.996Z,64.54
2022-08-05T05:04:00.533Z,62.40
2022-08-05T05:06:39.653Z,63.11
2022-08-05T05:09:14.301Z,64.35
2022-08-05T05:11:54.316Z,65.27
2022-08-05T05:14:27.848Z,65.31
2022-08-05T05:16:59.875Z,65.84
2022-08-05T05:19:36.139Z,64.93
2022-08-05T05:22:03.644Z,65.39
2022-08-05T05:24:57.875Z,64.63
2022-08-05T05:27:44.909Z,63.97
2022-08-05T05:30:31.031Z,63.19
2022-08-05T05:33:08.953Z,63.10
2022-08-05T05:35:45.035Z,64.10
2022-08-05T05:38:13.105Z,62.78
2022-08-05T05:40:47.972Z,62.26
2022-08-05T05:43:27.662Z,62.59
2022-08-05T05:46:10.768Z,61.66
2022-08-05T05:48:43.994Z,61.67
2022-08-05T05:51:15.623Z,61.67
2022-08-05T05:53:45.988Z,63.59
2022-08-05T05:56:26.120Z,61.71
2022-08-05T05:58:58.616Z,62.01
2022-08-05T06:05:03.725Z,62.11
2022-08-05T06:12:02.058Z,65.80
2022-08-05T07:49:00.634Z,66.32
2022-08-05T07:50:44.418Z,69.00
2022-08-05T07:53:11.110Z,67.83
2022-08-05T07:59:54.737Z,68.80
2022-08-05T08:03:13.932Z,71.90
2022-08-05T08:06:39.866Z,77.21
2022-08-05T08:09:25.311Z,79.24
2022-08-05T08:12:09.717Z,82.86
2022-08-05T08:20:10.419Z,87.78
2022-08-05T08:23:59.935Z,84.64
2022-08-05T08:25:26.937Z,87.13
2022-08-05T08:28:17.966Z,85.11
2022-08-05T08:30:48.019Z,87.44
2022-08-05T08:33:20.501Z,83.58
2022-08-05T08:45:19.669Z,81.61
2022-08-05T09:16:48.696Z,84.89
2022-08-05T09:19:16.157Z,86.05
2022-08-05T09:22:18.362Z,85.66
2022-08-05T09:24:34.608Z,87.11
2022-08-05T09:27:01.373Z,88.04
2022-08-05T09:29:48.029Z,80.74
2022-08-05T09:32:41.143Z,77.76
2022-08-05T09:35:10.740Z,77.22
2022-08-05T09:38:17.654Z,80.56
2022-08-05T09:40:52.710Z,81.97
2022-08-05T09:43:41.024Z,83.82
2022-08-05T09:46:33.658Z,82.26
2022-08-05T09:49:08.416Z,81.07
2022-08-05T09:51:49.400Z,85.23
2022-08-05T09:54:28.911Z,85.04
2022-08-05T09:56:56.199Z,82.71
2022-08-05T09:59:24.512Z,83.74
2022-08-05T10:01:58.359Z,85.43
2022-08-05T10:04:35.563Z,86.16
2022-08-05T10:07:19.735Z,86.20
2022-08-05T10:10:14.042Z,87.11
2022-08-05T10:12:49.768Z,89.76
2022-08-05T10:15:28.718Z,88.61
2022-08-05T10:18:09.016Z,87.04
2022-08-05T10:20:41.975Z,87.35
2022-08-05T10:23:21.851Z,86.06
2022-08-05T10:26:03.855Z,88.20
2022-08-05T10:28:33.848Z,86.73
2022-08-05T10:32:48.096Z,86.38
2022-08-05T10:33:54.393Z,86.23
2022-08-05T10:36:25.814Z,83.25
2022-08-05T10:39:01.471Z,84.92
2022-08-05T10:42:18.601Z,83.84
2022-08-05T10:44:48.883Z,85.76
2022-08-05T10:47:26.168Z,82.59
2022-08-05T10:50:32.820Z,80.72
2022-08-05T10:52:53.988Z,78.82
2022-08-05T10:55:27.133Z,73.67
2022-08-05T10:58:11.473Z,73.76
2022-08-05T11:00:42.123Z,74.43
2022-08-05T11:03:23.087Z,71.50
2022-08-05T11:06:22.430Z,68.18
2022-08-05T11:09:24.417Z,64.62
2022-08-05T11:12:37.301Z,66.13
2022-08-05T11:15:11.797Z,66.74
2022-08-05T11:17:57.583Z,66.34
2022-08-05T11:20:52.856Z,65.79
2022-08-05T11:23:33.637Z,63.77
2022-08-05T11:26:28.671Z,63.79
2022-08-05T11:29:02.408Z,64.62
2022-08-05T11:31:54.051Z,64.24
2022-08-05T11:34:57.258Z,60.21
2022-08-05T11:38:30.298Z,63.35
2022-08-05T11:41:34.757Z,60.75
2022-08-05T11:44:08.321Z,59.61
2022-08-05T11:47:09.563Z,60.58
2022-08-05T11:49:38.682Z,58.97
2022-08-05T11:52:11.713Z,61.99
2022-08-05T11:54:43.601Z,60.99
2022-08-05T11:57:25.660Z,61.76
2022-08-05T11:59:54.979Z,61.62
2022-08-05T12:02:33.151Z,58.49
2022-08-05T12:05:06.996Z,60.39
2022-08-05T12:08:03.540Z,60.14
2022-08-05T12:10:42.950Z,56.75
2022-08-05T12:13:15.900Z,55.19
2022-08-05T12:15:44.983Z,54.78
2022-08-05T12:18:12.170Z,56.29
2022-08-05T12:20:41.682Z,54.04
2022-08-05T12:23:09.924Z,52.58
2022-08-05T12:25:53.618Z,54.42
2022-08-05T12:28:37.948Z,53.62
2022-08-05T12:31:05.774Z,53.82
2022-08-05T12:33:36.798Z,51.60
2022-08-05T12:36:08.444Z,51.13
2022-08-05T12:38:39.670Z,52.43
2022-08-05T12:41:14.571Z,52.38
2022-08-05T12:44:01.406Z,52.08
2022-08-05T12:46:31.384Z,52.96
2022-08-05T12:49:14.475Z,52.36
2022-08-05T12:52:13.080Z,53.06
2022-08-05T12:54:32.679Z,53.90
2022-08-05T12:57:09.414Z,53.39
2022-08-05T13:01:57.858Z,54.67
2022-08-05T13:02:40.954Z,54.48
2022-08-05T13:05:08.322Z,52.67
2022-08-05T13:07:59.498Z,53.29
2022-08-05T13:10:32.248Z,51.04
2022-08-05T13:12:58.883Z,50.75
2022-08-05T13:15:36.105Z,51.09
2022-08-05T13:18:19.731Z,51.56
2022-08-05T13:20:49.035Z,52.41
2022-08-05T13:23:22.168Z,52.63
2022-08-05T13:25:51.806Z,53.44
2022-08-05T13:28:25.526Z,51.95
2022-08-05T13:30:53.494Z,53.18
2022-08-05T13:34:21.627Z,54.66
2022-08-05T13:36:09.423Z,55.51
2022-08-05T13:38:38.507Z,56.29
2022-08-05T13:41:10.290Z,56.08
2022-08-05T13:43:45.063Z,55.61
2022-08-05T13:46:37.913Z,56.34
2022-08-05T13:49:12.817Z,57.61
2022-08-05T13:51:46.229Z,60.03
2022-08-05T13:54:15.261Z,58.71
2022-08-05T13:56:45.028Z,59.20
2022-08-05T13:59:20.342Z,59.99
2022-08-05T14:01:58.383Z,58.58
2022-08-05T14:04:51.159Z,58.55
2022-08-05T14:07:26.303Z,56.32
2022-08-05T14:10:18.981Z,56.64
2022-08-05T14:12:54.717Z,54.66
2022-08-05T14:16:05.143Z,53.61
2022-08-05T14:18:14.612Z,53.10
2022-08-05T14:20:46.910Z,52.31
2022-08-05T14:23:14.821Z,53.50
2022-08-05T14:25:54.196Z,53.78
2022-08-05T14:28:26.203Z,53.59
2022-08-05T14:30:53.906Z,54.24
2022-08-05T14:33:22.683Z,55.93
2022-08-05T14:35:51.765Z,55.69
2022-08-05T14:38:27.911Z,56.92
2022-08-05T14:41:00.996Z,55.83
2022-08-05T14:44:02.697Z,57.69
2022-08-05T14:46:16.298Z,57.52
2022-08-05T14:48:42.735Z,56.48
2022-08-05T14:51:09.458Z,58.59
2022-08-05T14:53:44.093Z,60.34
2022-08-05T14:56:10.724Z,59.56
2022-08-05T14:58:39.078Z,59.83
2022-08-05T15:01:18.241Z,60.31
2022-08-05T15:03:49.344Z,59.13
2022-08-05T15:06:16.097Z,59.56
2022-08-05T15:08:59.688Z,58.48
2022-08-05T15:11:53.149Z,57.51
2022-08-05T15:14:34.222Z,59.17
2022-08-05T15:17:04.670Z,59.91
2022-08-05T15:19:32.317Z,59.96
2022-08-05T15:22:01.326Z,60.66
2022-08-05T15:24:28.472Z,61.44
2022-08-05T15:26:55.957Z,62.84
2022-08-05T15:29:23.655Z,62.55
2022-08-05T15:31:56.382Z,62.88
2022-08-05T15:34:33.203Z,63.05
2022-08-05T15:37:05.094Z,64.28
2022-08-05T15:41:04.037Z,65.74
2022-08-05T15:42:53.610Z,66.26
2022-08-05T15:45:06.455Z,66.88
2022-08-05T15:47:35.903Z,68.18
2022-08-05T15:50:03.056Z,67.92
2022-08-05T15:52:52.761Z,68.26
2022-08-05T15:55:24.476Z,67.95
2022-08-05T15:57:52.294Z,67.18
2022-08-05T16:00:26.453Z,67.03
2022-08-05T16:02:59.952Z,67.05
2022-08-05T16:05:28.516Z,67.35
2022-08-05T16:07:55.200Z,65.75
2022-08-05T16:10:25.546Z,67.58
2022-08-05T16:12:53.767Z,65.63
2022-08-05T16:15:23.070Z,66.59
2022-08-05T16:17:57.552Z,66.63
2022-08-05T16:20:27.978Z,66.66
2022-08-05T16:22:54.598Z,67.19
2022-08-05T16:25:21.076Z,68.80
2022-08-05T16:28:04.894Z,69.61
2022-08-05T16:30:33.129Z,69.57
2022-08-05T16:33:00.934Z,72.09
2022-08-05T16:35:32.189Z,71.47
2022-08-05T16:38:03.496Z,73.35
2022-08-05T16:40:52.115Z,71.73
2022-08-05T16:43:26.752Z,71.82
2022-08-05T16:46:04.850Z,71.23
2022-08-05T16:48:39.592Z,70.53
2022-08-05T16:51:09.821Z,71.58
2022-08-05T16:54:04.807Z,71.90
2022-08-05T16:56:36.260Z,70.69
2022-08-05T16:59:08.461Z,71.18
2022-08-05T17:01:54.859Z,71.97
2022-08-05T17:04:29.023Z,72.81
2022-08-05T17:07:00.867Z,71.39
2022-08-05T17:09:49.966Z,71.52
2022-08-05T17:12:18.150Z,72.04
2022-08-05T17:14:49.531Z,71.80
2022-08-05T17:17:16.097Z,70.84
2022-08-05T17:19:46.466Z,71.52
2022-08-05T17:22:17.766Z,72.53
2022-08-05T17:24:57.866Z,70.73
2022-08-05T17:27:26.196Z,71.18
2022-08-05T17:30:00.539Z,72.32
2022-08-05T17:32:29.351Z,71.70
2022-08-05T17:34:58.260Z,74.66
2022-08-05T17:37:41.165Z,80.78
2022-08-05T17:40:14.865Z,84.37
2022-08-05T17:42:50.876Z,87.50
2022-08-05T17:45:21.785Z,86.63
2022-08-05T17:47:54.456Z,88.15
2022-08-05T17:50:28.808Z,83.72
2022-08-05T17:53:01.123Z,87.39
2022-08-05T17:55:38.044Z,90.98
2022-08-05T17:58:13.063Z,90.67
2022-08-05T18:00:44.503Z,91.37
2022-08-05T18:03:33.432Z,92.48
2022-08-05T18:06:11.410Z,95.33
2022-08-05T18:08:40.573Z,94.26
2022-08-05T18:11:11.298Z,95.73
2022-08-05T18:13:51.429Z,95.04
2022-08-05T18:16:20.515Z,93.85
2022-08-05T18:18:48.627Z,94.54
2022-08-05T18:21:19.561Z,94.67
2022-08-05T18:23:47.945Z,94.18
2022-08-05T18:26:14.763Z,94.50
2022-08-05T18:28:47.120Z,92.57
2022-08-05T18:31:15.766Z,92.06
2022-08-05T18:33:47.298Z,90.29
2022-08-05T18:36:19.041Z,89.01
2022-08-05T18:38:46.291Z,89.49
2022-08-05T18:41:55.079Z,83.61
2022-08-05T18:44:06.361Z,86.27
2022-08-05T18:46:34.353Z,87.87
2022-08-05T18:49:21.295Z,88.71
2022-08-05T18:52:08.906Z,88.81
2022-08-05T18:55:00.960Z,89.05
2022-08-05T18:58:03.449Z,88.93
2022-08-05T19:01:17.989Z,90.11
2022-08-05T19:03:55.465Z,91.36
2022-08-05T19:06:34.041Z,87.97
2022-08-05T19:09:04.135Z,89.44
2022-08-05T19:11:37.103Z,85.18
2022-08-05T19:14:52.229Z,88.58
2022-08-05T19:17:07.781Z,87.67
2022-08-05T19:19:46.770Z,80.28
2022-08-05T19:22:17.100Z,86.05
2022-08-05T19:25:00.370Z,86.27
2022-08-05T19:27:32.886Z,83.48
2022-08-05T19:30:09.524Z,80.27
2022-08-05T19:32:37.014Z,80.17
2022-08-05T19:35:09.089Z,82.64
2022-08-05T19:38:04.755Z,83.55
2022-08-05T19:40:26.701Z,83.34
2022-08-05T19:43:04.975Z,80.30
2022-08-05T19:45:37.851Z,82.74
2022-08-05T19:56:13.795Z,80.44
2022-08-05T20:13:54.477Z,83.85
2022-08-05T20:16:36.831Z,82.36
2022-08-05T20:19:06.927Z,81.23
2022-08-05T20:21:34.079Z,79.71
2022-08-05T20:24:04.656Z,78.01
2022-08-05T20:26:37.153Z,78.83
2022-08-05T20:29:04.692Z,76.18
2022-08-05T20:31:42.785Z,79.00
2022-08-05T20:34:24.424Z,78.43
2022-08-05T20:36:51.043Z,76.02
2022-08-05T20:39:20.360Z,77.60
2022-08-05T20:41:48.275Z,78.15
2022-08-05T20:44:29.202Z,78.46
2022-08-05T20:46:59.432Z,79.92
2022-08-05T20:49:26.457Z,82.52
2022-08-05T20:51:54.946Z,80.75
2022-08-05T20:54:24.749Z,82.43
2022-08-05T20:56:52.502Z,82.16
2022-08-05T20:59:27.174Z,82.09
2022-08-05T21:02:06.272Z,81.07
2022-08-05T21:04:33.453Z,82.67
2022-08-05T21:07:00.169Z,84.60
2022-08-05T21:09:27.106Z,85.67
2022-08-05T21:12:10.587Z,83.89
2022-08-05T21:14:38.432Z,85.49
2022-08-05T21:17:05.875Z,83.06
2022-08-05T21:19:47.331Z,85.25
2022-08-05T21:22:21.649Z,83.63
2022-08-05T21:24:51.814Z,84.16
2022-08-05T21:27:20.682Z,85.93
2022-08-05T21:29:58.806Z,84.45
2022-08-05T21:32:29.325Z,85.58
2022-08-05T21:35:08.760Z,83.62
2022-08-05T21:37:46.991Z,85.14
2022-08-05T21:40:14.371Z,85.59
2022-08-05T21:44:04.931Z,85.46
2022-08-05T21:46:58.881Z,84.77
2022-08-05T21:49:48.599Z,84.77
2022-08-05T21:52:22.403Z,84.23
2022-08-05T21:54:57.359Z,85.37
2022-08-05T21:57:35.619Z,85.77
2022-08-05T22:00:06.116Z,83.91
2022-08-05T22:02:34.420Z,81.69
2022-08-05T22:05:01.052Z,84.04
2022-08-05T22:07:39.909Z,83.29
2022-08-05T22:10:16.816Z,83.26
2022-08-05T22:12:50.872Z,83.11
2022-08-05T22:16:02.533Z,82.58
2022-08-05T22:18:06.266Z,85.28
2022-08-05T22:20:35.647Z,84.16
2022-08-05T22:23:24.425Z,83.87
2022-08-05T22:26:11.849Z,82.53
2022-08-05T22:28:41.806Z,82.58
2022-08-05T22:31:08.475Z,83.37
2022-08-05T22:33:57.797Z,83.15
2022-08-05T22:36:24.968Z,81.72
2022-08-05T22:38:52.170Z,82.78
2022-08-05T22:41:26.436Z,84.29
2022-08-05T22:44:08.460Z,82.86
2022-08-05T22:46:40.123Z,81.31
2022-08-05T22:49:23.530Z,84.57
2022-08-05T22:52:04.446Z,84.25
2022-08-05T22:54:33.541Z,84.71
2022-08-05T22:56:59.950Z,82.89
2022-08-05T22:59:46.266Z,83.76
2022-08-05T23:02:16.793Z,83.12
2022-08-05T23:04:43.973Z,81.37
2022-08-05T23:07:19.313Z,80.53
2022-08-05T23:09:58.159Z,80.82
2022-08-05T23:12:32.355Z,80.21
2022-08-05T23:15:03.945Z,78.97
2022-08-05T23:17:59.616Z,78.38
2022-08-05T23:20:23.436Z,78.86
2022-08-05T23:22:50.958Z,79.26
2022-08-05T23:25:53.470Z,78.47
2022-08-05T23:28:09.297Z,77.95
2022-08-05T23:30:39.573Z,78.86
2022-08-05T23:33:07.300Z,76.36
2022-08-05T23:35:45.480Z,78.24
2022-08-05T23:38:12.248Z,76.28
2022-08-05T23:40:40.908Z,76.76
2022-08-05T23:43:24.227Z,76.67
2022-08-05T23:45:52.375Z,76.67
2022-08-05T23:48:19.640Z,74.82
2022-08-05T23:50:46.247Z,74.30
2022-08-05T23:53:22.822Z,75.43
2022-08-05T23:55:49.750Z,74.88
2022-08-05T23:58:31.935Z,74.85
